Time;durP1;ratioP1;P1;durP2;ratioP2;P2;SDS_P1;SDS_P2;PMS_P1;PMS_P2;Temp;Humidity;BMP_temperature;BMP_pressure;BME280_temperature;BME280_humidity;BME280_pressure;Samples;Min_cycle;Max_cycle;Signal;HPM_P1;HPM_P2
2022/10/01 00:01:59;;;;;;;17.73;13.83;;;;;;;17.41;100.00;100762.37;1754277;82;21025;-71
2022/10/01 00:04:27;;;;;;;16.15;12.95;;;;;;;17.36;100.00;100759.75;1754107;81;21514;-72
2022/10/01 00:06:58;;;;;;;16.15;13.45;;;;;;;17.32;100.00;100763.50;1751862;81;20986;-71
2022/10/01 00:09:23;;;;;;;16.45;13.28;;;;;;;17.30;100.00;100766.20;1756229;81;21375;-72
2022/10/01 00:11:51;;;;;;;15.78;13.48;;;;;;;17.29;100.00;100766.30;1754581;81;21049;-71
2022/10/01 00:14:21;;;;;;;16.62;13.38;;;;;;;17.28;100.00;100768.55;1754282;81;21502;-71
2022/10/01 00:16:48;;;;;;;17.65;13.85;;;;;;;17.28;100.00;100768.08;1752468;81;21054;-71
2022/10/01 00:19:17;;;;;;;15.88;13.03;;;;;;;17.29;100.00;100769.73;1753014;81;21069;-72
2022/10/01 00:21:44;;;;;;;16.30;13.38;;;;;;;17.27;100.00;100774.67;1753860;81;21699;-71
2022/10/01 00:24:12;;;;;;;18.40;13.48;;;;;;;17.22;100.00;100777.13;1750821;82;21034;-72
2022/10/01 00:26:42;;;;;;;17.10;13.80;;;;;;;17.21;100.00;100772.02;1751277;82;21121;-71
2022/10/01 00:29:14;;;;;;;15.25;12.40;;;;;;;17.19;100.00;100772.14;1752952;80;21938;-70
2022/10/01 00:31:42;;;;;;;18.62;12.78;;;;;;;17.15;100.00;100776.33;1754520;81;21085;-71
2022/10/01 00:34:13;;;;;;;15.35;12.05;;;;;;;17.11;100.00;100779.63;1755157;81;20983;-72
2022/10/01 00:36:41;;;;;;;14.15;12.35;;;;;;;17.08;100.00;100779.83;1753066;82;21100;-72
2022/10/01 00:39:11;;;;;;;16.97;13.05;;;;;;;17.07;100.00;100789.02;1751275;81;21073;-72
2022/10/01 00:41:39;;;;;;;14.38;10.93;;;;;;;16.99;100.00;100785.63;1752956;81;21093;-72
2022/10/01 00:44:36;;;;;;;15.83;13.08;;;;;;;16.95;100.00;100782.42;1754128;82;21097;-71
2022/10/01 00:47:36;;;;;;;14.83;12.65;;;;;;;16.91;100.00;100783.56;1753910;81;21046;-72
2022/10/01 00:50:21;;;;;;;14.53;12.60;;;;;;;16.89;100.00;100790.63;1752402;82;21038;-72
2022/10/01 00:52:54;;;;;;;15.63;13.25;;;;;;;16.82;100.00;100786.28;1752533;82;21093;-71
2022/10/01 00:55:25;;;;;;;14.43;12.78;;;;;;;16.84;100.00;100790.09;1754197;81;21022;-72
2022/10/01 00:57:54;;;;;;;18.32;14.05;;;;;;;16.85;100.00;100789.61;1754795;81;21093;-71
2022/10/01 01:00:22;;;;;;;18.92;14.00;;;;;;;16.86;100.00;100779.59;1754887;81;21022;-71
2022/10/01 01:02:51;;;;;;;16.93;13.13;;;;;;;16.82;100.00;100780.25;1755993;81;21065;-71
2022/10/01 01:05:19;;;;;;;17.95;13.93;;;;;;;16.83;100.00;100781.94;1754408;81;21530;-71
2022/10/01 01:07:49;;;;;;;17.82;13.32;;;;;;;16.79;100.00;100779.97;1753973;82;21077;-71
2022/10/01 01:10:24;;;;;;;17.05;13.10;;;;;;;16.80;100.00;100780.80;1750949;82;21002;-72
2022/10/01 01:13:25;;;;;;;14.80;12.70;;;;;;;16.79;100.00;100788.23;1750464;82;21585;-73
2022/10/01 01:16:26;;;;;;;16.95;13.70;;;;;;;16.77;100.00;100787.51;1754761;82;21522;-72
2022/10/01 01:19:25;;;;;;;18.10;14.55;;;;;;;16.77;100.00;100791.41;1751761;81;20999;-73
2022/10/01 01:21:59;;;;;;;21.75;14.83;;;;;;;16.77;100.00;100783.13;1718856;81;21042;-72
2022/10/01 01:24:42;;;;;;;16.17;13.25;;;;;;;16.77;100.00;100788.34;1755049;81;21558;-72
2022/10/01 01:27:32;;;;;;;16.30;13.55;;;;;;;16.75;100.00;100786.30;1726521;81;21070;-71
2022/10/01 01:30:13;;;;;;;16.85;13.03;;;;;;;16.74;100.00;100787.70;1752227;82;21034;-71
2022/10/01 01:33:05;;;;;;;17.02;14.15;;;;;;;16.71;100.00;100783.53;1754338;81;21424;-71
2022/10/01 01:35:52;;;;;;;15.95;13.88;;;;;;;16.69;100.00;100778.08;1750962;81;21054;-72
2022/10/01 01:38:27;;;;;;;17.35;14.03;;;;;;;16.67;100.00;100783.84;1754644;81;21070;-71
2022/10/01 01:40:58;;;;;;;18.05;13.35;;;;;;;16.69;100.00;100788.48;1752456;81;21132;-72
2022/10/01 01:43:33;;;;;;;20.15;14.93;;;;;;;16.67;100.00;100787.75;1748188;81;21057;-72
2022/10/01 01:46:03;;;;;;;18.77;13.83;;;;;;;16.65;100.00;100783.11;1752546;81;21072;-71
2022/10/01 01:48:35;;;;;;;15.60;13.32;;;;;;;16.62;100.00;100786.25;1756705;81;21563;-72
2022/10/01 01:51:09;;;;;;;15.53;13.00;;;;;;;16.59;100.00;100789.06;1751621;82;21010;-71
2022/10/01 01:53:37;;;;;;;18.35;13.72;;;;;;;16.57;100.00;100784.91;1746821;80;22262;-72
2022/10/01 01:56:06;;;;;;;16.85;12.55;;;;;;;16.50;100.00;100785.74;1743597;81;21085;-71
2022/10/01 01:58:37;;;;;;;16.87;13.80;;;;;;;16.49;100.00;100787.99;1746380;81;21060;-71
2022/10/01 02:01:05;;;;;;;18.60;14.68;;;;;;;16.44;100.00;100783.55;1745133;81;21024;-69
2022/10/01 02:03:34;;;;;;;17.32;14.10;;;;;;;16.42;100.00;100791.91;1744171;80;21474;-71
2022/10/01 02:06:20;;;;;;;18.55;13.48;;;;;;;16.40;100.00;100785.97;1746445;81;21064;-71
2022/10/01 02:08:58;;;;;;;16.48;14.03;;;;;;;16.36;100.00;100781.91;1743326;81;21052;-72
2022/10/01 02:11:35;;;;;;;16.75;14.15;;;;;;;16.36;100.00;100783.20;1745609;82;20985;-71
2022/10/01 02:14:13;;;;;;;15.15;13.55;;;;;;;16.33;100.00;100780.34;1746307;82;21544;-72
2022/10/01 02:16:48;;;;;;;16.77;14.05;;;;;;;16.32;100.00;100786.92;1747055;82;21029;-71
2022/10/01 02:19:35;;;;;;;16.60;13.80;;;;;;;16.30;100.00;100781.85;1746561;82;21040;-72
2022/10/01 02:22:07;;;;;;;15.80;13.53;;;;;;;16.33;100.00;100782.11;1748750;80;21009;-71
2022/10/01 02:24:49;;;;;;;18.10;14.63;;;;;;;16.33;100.00;100780.81;1748910;81;21001;-71
2022/10/01 02:27:26;;;;;;;19.23;15.03;;;;;;;16.30;100.00;100775.80;1746225;81;21112;-71
2022/10/01 02:29:57;;;;;;;17.60;14.63;;;;;;;16.29;100.00;100776.75;1746601;82;21081;-71
2022/10/01 02:32:27;;;;;;;18.07;14.47;;;;;;;16.29;100.00;100778.05;1748946;82;21048;-71
2022/10/01 02:34:54;;;;;;;19.45;13.15;;;;;;;16.28;100.00;100781.12;1744305;81;21146;-70
2022/10/01 02:37:26;;;;;;;16.45;14.00;;;;;;;16.26;100.00;100782.98;1751471;82;21076;-71
2022/10/01 02:39:55;;;;;;;19.17;15.10;;;;;;;16.26;100.00;100783.42;1746389;80;21056;-72
2022/10/01 02:42:26;;;;;;;17.65;13.70;;;;;;;16.26;100.00;100779.53;1748663;81;21563;-71
2022/10/01 02:44:56;;;;;;;15.55;13.58;;;;;;;16.23;100.00;100785.75;1751530;80;21044;-71
2022/10/01 02:47:32;;;;;;;17.67;14.50;;;;;;;16.19;100.00;100788.18;1743791;81;21497;-71
2022/10/01 02:49:57;;;;;;;16.17;13.83;;;;;;;16.17;100.00;100797.36;1748305;81;21041;-71
2022/10/01 02:52:35;;;;;;;18.42;15.68;;;;;;;16.16;100.00;100793.11;1746490;80;21052;-69
2022/10/01 02:55:12;;;;;;;18.30;15.15;;;;;;;16.21;100.00;100791.52;1746732;81;21052;-70
2022/10/01 02:57:39;;;;;;;17.62;14.80;;;;;;;16.25;100.00;100793.45;1743227;81;21055;-70
2022/10/01 03:00:11;;;;;;;20.30;14.80;;;;;;;16.20;100.00;100789.39;1699935;83;21107;-70
2022/10/01 03:02:39;;;;;;;19.60;14.68;;;;;;;16.21;100.00;100793.64;1751045;82;21057;-70
2022/10/01 03:05:07;;;;;;;20.72;15.05;;;;;;;16.21;100.00;100791.04;1751489;81;21577;-70
2022/10/01 03:07:35;;;;;;;22.55;15.18;;;;;;;16.28;100.00;100790.21;1751512;82;21521;-70
2022/10/01 03:10:05;;;;;;;20.30;15.32;;;;;;;16.30;100.00;100784.89;1746096;82;21025;-70
2022/10/01 03:12:34;;;;;;;16.82;14.00;;;;;;;16.32;100.00;100784.33;1751363;81;21072;-70
2022/10/01 03:15:02;;;;;;;22.60;15.38;;;;;;;16.32;100.00;100789.52;1745994;81;21097;-70
2022/10/01 03:17:29;;;;;;;21.25;15.40;;;;;;;16.32;100.00;100790.38;1743690;81;21036;-70
2022/10/01 03:19:57;;;;;;;18.95;14.87;;;;;;;16.33;100.00;100797.23;1748831;81;21615;-70
2022/10/01 03:22:24;;;;;;;19.62;14.40;;;;;;;16.32;100.00;100802.08;1748140;81;21529;-70
2022/10/01 03:24:52;;;;;;;17.95;14.47;;;;;;;16.28;100.00;100801.91;1744133;81;21068;-70
2022/10/01 03:27:20;;;;;;;19.15;14.25;;;;;;;16.28;100.00;100799.74;1751873;81;21060;-70
2022/10/01 03:29:48;;;;;;;16.37;13.30;;;;;;;16.27;100.00;100798.09;1739458;80;21044;-70
2022/10/01 03:32:15;;;;;;;17.52;14.15;;;;;;;16.20;100.00;100807.58;1744743;80;21064;-71
2022/10/01 03:34:42;;;;;;;21.12;14.28;;;;;;;16.18;100.00;100813.77;1751413;82;21048;-70
2022/10/01 03:37:10;;;;;;;19.55;14.40;;;;;;;16.20;100.00;100817.14;1748995;82;21009;-71
2022/10/01 03:39:38;;;;;;;15.03;12.35;;;;;;;16.22;100.00;100817.88;1746339;80;21150;-71
2022/10/01 03:42:05;;;;;;;16.12;13.48;;;;;;;16.20;100.00;100819.27;1751342;80;21060;-71
2022/10/01 03:44:33;;;;;;;16.75;13.13;;;;;;;16.20;100.00;100820.56;1751292;82;21025;-71
2022/10/01 03:47:00;;;;;;;17.48;13.50;;;;;;;16.20;100.00;100817.96;1746195;81;21068;-71
2022/10/01 03:49:27;;;;;;;15.90;12.65;;;;;;;16.20;100.00;100824.93;1746192;80;22248;-71
2022/10/01 03:51:55;;;;;;;15.98;13.25;;;;;;;16.17;100.00;100824.63;1748884;81;21040;-71
2022/10/01 03:54:22;;;;;;;14.28;12.60;;;;;;;16.14;100.00;100830.03;1746392;81;21028;-72
2022/10/01 03:56:49;;;;;;;17.20;13.65;;;;;;;16.15;100.00;100830.86;1746120;82;21029;-71
2022/10/01 03:59:17;;;;;;;16.82;13.85;;;;;;;16.15;100.00;100837.36;1748837;81;21583;-72
2022/10/01 04:01:43;;;;;;;15.08;13.48;;;;;;;16.17;100.00;100834.19;1746738;82;21041;-71
2022/10/01 04:04:11;;;;;;;17.07;12.28;;;;;;;16.20;100.00;100825.75;1697080;84;21073;-71
2022/10/01 04:06:38;;;;;;;17.23;13.45;;;;;;;16.26;100.00;100832.78;1741056;81;21084;-71
2022/10/01 04:09:06;;;;;;;19.10;13.32;;;;;;;16.30;100.00;100832.52;1703232;83;21038;-72
2022/10/01 04:11:33;;;;;;;16.45;13.58;;;;;;;16.37;100.00;100829.05;1748131;81;21068;-71
2022/10/01 04:14:01;;;;;;;16.80;13.35;;;;;;;16.41;100.00;100818.36;1744330;81;21111;-71
2022/10/01 04:16:28;;;;;;;17.55;13.88;;;;;;;16.48;100.00;100821.39;1701226;83;21109;-71
2022/10/01 04:18:55;;;;;;;15.40;12.98;;;;;;;16.53;100.00;100819.34;1746327;81;21080;-70
2022/10/01 04:21:22;;;;;;;15.25;13.60;;;;;;;16.57;100.00;100818.69;1746102;81;21052;-72
2022/10/01 04:23:49;;;;;;;18.45;14.87;;;;;;;16.64;100.00;100819.95;1747202;82;21048;-71
2022/10/01 04:26:18;;;;;;;18.25;14.65;;;;;;;16.70;100.00;100820.02;1745286;80;21036;-71
2022/10/01 04:28:45;;;;;;;18.37;14.47;;;;;;;16.79;100.00;100820.73;1748269;81;21036;-71
2022/10/01 04:31:26;;;;;;;15.60;14.00;;;;;;;16.86;100.00;100833.72;1743181;82;21017;-71
2022/10/01 04:33:56;;;;;;;17.67;14.00;;;;;;;16.92;100.00;100829.41;1742079;80;21048;-70
2022/10/01 04:36:25;;;;;;;15.05;13.22;;;;;;;16.96;100.00;100826.16;1746376;82;21036;-71
2022/10/01 04:38:55;;;;;;;16.20;13.32;;;;;;;16.97;100.00;100830.41;1748806;81;21544;-71
2022/10/01 04:41:22;;;;;;;15.80;13.60;;;;;;;16.95;100.00;100835.73;1751551;80;21064;-71
2022/10/01 04:43:48;;;;;;;19.17;14.25;;;;;;;16.96;100.00;100838.69;1746214;82;21112;-71
2022/10/01 04:46:16;;;;;;;17.98;14.93;;;;;;;16.96;100.00;100841.76;1747880;82;21017;-72
2022/10/01 04:48:43;;;;;;;18.05;15.35;;;;;;;16.97;100.00;100845.56;1750145;82;21052;-72
2022/10/01 04:51:10;;;;;;;17.60;15.43;;;;;;;16.99;100.00;100840.24;1746187;80;21039;-71
2022/10/01 04:53:38;;;;;;;17.57;15.68;;;;;;;17.04;100.00;100842.56;1741072;80;21064;-70
2022/10/01 04:56:05;;;;;;;18.57;16.10;;;;;;;17.07;100.00;100835.39;1746216;81;21025;-71
2022/10/01 04:58:33;;;;;;;18.90;16.17;;;;;;;17.14;100.00;100840.55;1746371;81;21051;-71
2022/10/01 05:01:00;;;;;;;18.70;16.30;;;;;;;17.22;100.00;100837.44;1751462;81;21560;-71
2022/10/01 05:03:27;;;;;;;18.10;15.60;;;;;;;17.33;100.00;100834.11;1751224;81;21009;-70
2022/10/01 05:05:55;;;;;;;16.85;15.05;;;;;;;17.44;100.00;100840.73;1746284;80;21541;-71
2022/10/01 05:08:22;;;;;;;18.27;15.28;;;;;;;17.48;100.00;100837.43;1751541;80;20997;-70
2022/10/01 05:10:50;;;;;;;16.35;14.65;;;;;;;17.52;100.00;100844.13;1747295;82;21032;-70
2022/10/01 05:13:17;;;;;;;16.30;14.60;;;;;;;17.57;100.00;100848.06;1746095;81;21037;-70
2022/10/01 05:15:50;;;;;;;17.20;14.53;;;;;;;17.58;100.00;100852.82;1746242;82;21061;-71
2022/10/01 05:18:18;;;;;;;15.43;13.55;;;;;;;17.63;100.00;100851.55;1744188;81;21064;-70
2022/10/01 05:20:45;;;;;;;17.00;14.65;;;;;;;17.67;100.00;100852.65;1751631;81;21111;-72
2022/10/01 05:23:12;;;;;;;15.90;14.07;;;;;;;17.68;100.00;100847.34;1751036;80;21070;-71
2022/10/01 05:25:39;;;;;;;18.20;13.43;;;;;;;17.73;100.00;100843.11;1697819;84;21579;-71
2022/10/01 05:28:07;;;;;;;16.85;14.50;;;;;;;17.76;100.00;100843.74;1692366;84;21069;-70
2022/10/01 05:30:34;;;;;;;17.20;13.93;;;;;;;17.85;100.00;100846.69;1690129;83;21566;-70
2022/10/01 05:33:03;;;;;;;16.90;14.05;;;;;;;17.92;100.00;100843.52;1688447;85;21050;-71
2022/10/01 05:35:31;;;;;;;17.27;14.68;;;;;;;18.04;100.00;100846.22;1688624;84;21046;-70
2022/10/01 05:38:00;;;;;;;15.88;13.62;;;;;;;18.11;100.00;100845.69;1696126;84;21035;-71
2022/10/01 05:40:29;;;;;;;16.25;13.53;;;;;;;18.21;100.00;100854.52;1747907;80;21041;-71
2022/10/01 05:42:57;;;;;;;14.60;12.82;;;;;;;18.33;100.00;100854.13;1748728;81;21072;-71
2022/10/01 05:45:27;;;;;;;12.10;9.98;;;;;;;18.46;100.00;100857.98;1746095;80;21006;-71
2022/10/01 05:47:59;;;;;;;14.90;13.25;;;;;;;18.64;100.00;100865.44;1715312;82;21083;-71
2022/10/01 05:50:33;;;;;;;14.70;13.18;;;;;;;18.81;100.00;100868.97;1748647;81;21163;-71
2022/10/01 05:52:58;;;;;;;11.57;10.20;;;;;;;18.93;100.00;100869.37;1754140;80;21565;-71
2022/10/01 05:55:32;;;;;;;12.82;11.48;;;;;;;19.07;100.00;100877.97;1767522;80;21002;-72
2022/10/01 05:58:00;;;;;;;13.78;12.37;;;;;;;19.19;100.00;100880.49;1766375;80;20990;-70
2022/10/01 06:00:27;;;;;;;11.18;10.05;;;;;;;19.32;100.00;100892.17;1770295;80;21069;-71
2022/10/01 06:02:59;;;;;;;12.75;11.10;;;;;;;19.38;100.00;100900.85;1765362;80;21050;-71
2022/10/01 06:05:28;;;;;;;11.78;10.30;;;;;;;19.38;100.00;100902.16;1768267;80;20987;-72
2022/10/01 06:07:55;;;;;;;10.18;9.05;;;;;;;19.46;100.00;100915.09;1767925;80;21125;-70
2022/10/01 06:10:23;;;;;;;11.57;10.40;;;;;;;19.67;100.00;100915.23;1768395;80;21018;-70
2022/10/01 06:12:55;;;;;;;14.58;12.23;;;;;;;19.86;100.00;100926.47;1767231;80;21448;-71
2022/10/01 06:15:23;;;;;;;13.13;11.77;;;;;;;20.09;100.00;100933.84;1769041;80;21045;-70
2022/10/01 06:17:50;;;;;;;12.30;10.82;;;;;;;20.28;100.00;100947.15;1770888;80;20967;-72
2022/10/01 06:20:19;;;;;;;10.75;9.65;;;;;;;20.44;100.00;100950.70;1767887;80;21011;-71
2022/10/01 06:22:55;;;;;;;11.50;10.30;;;;;;;20.53;100.00;100962.22;1768102;80;21494;-70
2022/10/01 06:25:24;;;;;;;11.70;10.50;;;;;;;20.77;100.00;100958.98;1766955;80;21014;-71
2022/10/01 06:27:57;;;;;;;10.80;9.70;;;;;;;20.95;100.00;100962.40;1772631;80;21487;-71
2022/10/01 06:30:30;;;;;;;10.55;9.55;;;;;;;21.07;100.00;100967.95;1769994;80;21018;-71
2022/10/01 06:33:06;;;;;;;11.48;10.05;;;;;;;21.10;100.00;100969.48;1769973;80;20994;-72
2022/10/01 06:35:35;;;;;;;7.08;6.47;;;;;;;21.08;100.00;100981.86;1769991;80;21066;-71
2022/10/01 06:38:02;;;;;;;8.18;7.33;;;;;;;21.08;100.00;100977.94;1771388;80;21005;-71
2022/10/01 06:40:30;;;;;;;11.25;8.73;;;;;;;21.03;100.00;100980.94;1769664;80;21026;-71
2022/10/01 06:42:57;;;;;;;10.43;9.33;;;;;;;20.97;100.00;100989.28;1772102;80;21123;-70
2022/10/01 06:45:26;;;;;;;9.63;8.00;;;;;;;20.90;100.00;100991.53;1766261;80;20994;-71
2022/10/01 06:48:01;;;;;;;7.40;6.67;;;;;;;20.96;100.00;100992.35;1768945;80;20978;-72
2022/10/01 06:50:31;;;;;;;9.45;8.20;;;;;;;21.03;100.00;100995.33;1765275;80;21073;-72
2022/10/01 06:53:00;;;;;;;10.65;9.65;;;;;;;20.97;100.00;101003.19;1768320;80;21384;-72
2022/10/01 06:55:31;;;;;;;10.35;8.93;;;;;;;20.99;100.00;101001.28;1770400;80;21030;-72
2022/10/01 06:58:05;;;;;;;11.63;9.73;;;;;;;20.89;100.00;101012.13;1786074;80;21077;-72
2022/10/01 07:00:37;;;;;;;10.98;9.83;;;;;;;20.95;100.00;101009.51;1785531;80;21002;-72
2022/10/01 07:03:10;;;;;;;10.80;9.70;;;;;;;21.04;100.00;100996.16;1782937;80;21070;-73
2022/10/01 07:05:38;;;;;;;12.35;10.60;;;;;;;21.04;100.00;101002.21;1783352;80;21057;-72
2022/10/01 07:08:07;;;;;;;11.08;9.30;;;;;;;21.14;100.00;100997.07;1763872;80;21021;-73
2022/10/01 07:10:36;;;;;;;10.98;9.83;;;;;;;21.13;100.00;101000.17;1767971;80;21375;-73
2022/10/01 07:13:13;;;;;;;13.32;9.63;;;;;;;21.27;100.00;101002.13;1768667;80;21026;-73
2022/10/01 07:15:40;;;;;;;8.38;7.58;;;;;;;21.52;100.00;101004.45;1767223;80;20995;-72
2022/10/01 07:18:09;;;;;;;7.75;6.80;;;;;;;21.75;100.00;101013.00;1772553;80;21494;-72
2022/10/01 07:20:39;;;;;;;7.42;6.58;;;;;;;21.91;100.00;101016.48;1771240;80;20986;-73
2022/10/01 07:23:12;;;;;;;8.60;7.47;;;;;;;22.08;100.00;101031.27;1769937;80;20951;-73
2022/10/01 07:25:43;;;;;;;7.55;6.75;;;;;;;22.26;100.00;101042.03;1769028;80;21554;-73
2022/10/01 07:28:17;;;;;;;7.87;7.00;;;;;;;22.56;100.00;101040.70;1770065;80;21459;-73
2022/10/01 07:30:48;;;;;;;5.62;5.05;;;;;;;22.89;100.00;101053.66;1765076;80;21065;-73
2022/10/01 07:33:18;;;;;;;9.58;7.72;;;;;;;23.19;100.00;101063.28;1766853;80;20971;-72
2022/10/01 07:35:46;;;;;;;4.87;4.05;;;;;;;23.30;100.00;101075.48;1770648;80;21014;-72
2022/10/01 07:38:13;;;;;;;7.78;6.75;;;;;;;23.53;100.00;101072.09;1768895;80;20994;-73
2022/10/01 07:40:40;;;;;;;6.78;6.08;;;;;;;23.68;100.00;101085.18;1769484;80;21061;-73
2022/10/01 07:43:09;;;;;;;6.25;5.58;;;;;;;23.81;100.00;101081.47;1771296;80;21034;-72
2022/10/01 07:45:36;;;;;;;7.55;6.58;;;;;;;23.92;100.00;101084.75;1774467;80;20990;-73
2022/10/01 07:48:03;;;;;;;8.33;6.30;;;;;;;24.08;100.00;101084.17;1775220;80;21510;-72
2022/10/01 07:50:30;;;;;;;7.37;6.47;;;;;;;24.17;100.00;101085.97;1768707;80;21046;-72
2022/10/01 07:52:58;;;;;;;5.47;4.97;;;;;;;24.25;100.00;101088.35;1768206;80;21026;-74
2022/10/01 07:55:29;;;;;;;5.80;5.08;;;;;;;24.42;100.00;101080.22;1767342;80;21006;-73
2022/10/01 07:58:02;;;;;;;8.03;5.53;;;;;;;24.42;100.00;101080.22;1765054;79;21066;-72
2022/10/01 08:00:27;;;;;;;7.87;6.40;;;;;;;24.55;100.00;101084.22;1767656;80;21034;-72
2022/10/01 08:02:55;;;;;;;5.85;4.80;;;;;;;24.52;100.00;101091.57;1768064;80;21054;-72
2022/10/01 08:05:26;;;;;;;6.40;4.97;;;;;;;24.51;100.00;101086.80;1764909;80;21093;-72
2022/10/01 08:08:04;;;;;;;6.53;5.58;;;;;;;24.55;100.00;101088.17;1776368;80;20974;-74
2022/10/01 08:10:36;;;;;;;6.70;4.03;;;;;;;24.43;100.00;101089.76;1769297;80;20975;-73
2022/10/01 08:13:13;;;;;;;7.33;4.92;;;;;;;24.37;100.00;101081.48;1766470;80;20991;-73
2022/10/01 08:15:44;;;;;;;5.28;4.78;;;;;;;24.47;100.00;101078.79;1771635;79;21215;-73
2022/10/01 08:18:12;;;;;;;5.67;4.78;;;;;;;24.68;100.00;101077.30;1773698;80;21021;-72
2022/10/01 08:20:39;;;;;;;6.03;5.08;;;;;;;24.88;100.00;101079.81;1782964;80;20991;-72
2022/10/01 08:23:09;;;;;;;5.78;5.20;;;;;;;25.02;100.00;101083.77;1784003;80;21030;-74
2022/10/01 08:25:38;;;;;;;7.28;5.33;;;;;;;25.18;100.00;101081.30;1784646;80;21018;-72
2022/10/01 08:28:06;;;;;;;6.95;5.00;;;;;;;25.26;100.00;101088.00;1783265;80;21514;-74
2022/10/01 08:30:38;;;;;;;8.85;5.20;;;;;;;25.63;100.00;101092.31;1782302;80;21597;-74
2022/10/01 08:33:07;;;;;;;5.97;5.33;;;;;;;25.79;100.00;101092.91;1783100;80;21050;-74
2022/10/01 08:35:39;;;;;;;7.22;5.53;;;;;;;25.94;100.00;101086.65;1784789;80;21007;-73
2022/10/01 08:38:06;;;;;;;7.30;5.22;;;;;;;25.89;100.00;101077.86;1783977;80;21042;-73
2022/10/01 08:40:37;;;;;;;7.45;6.15;;;;;;;25.56;100.00;101085.48;1783950;79;21031;-75
2022/10/01 08:43:06;;;;;;;6.20;5.60;;;;;;;25.41;100.00;101087.50;1756033;80;21115;-74
2022/10/01 08:45:47;;;;;;;5.80;5.30;;;;;;;25.47;100.00;101083.77;1745054;80;21009;-73
2022/10/01 08:48:40;;;;;;;6.22;5.62;;;;;;;25.29;100.00;101084.26;1751050;80;21600;-74
2022/10/01 08:51:25;;;;;;;6.40;5.80;;;;;;;25.30;100.00;101090.67;1750125;81;21092;-74
2022/10/01 08:54:43;;;;;;;6.92;6.03;;;;;;;25.28;100.00;101086.04;1748649;82;21060;-74
2022/10/01 08:57:19;;;;;;;7.85;6.85;;;;;;;25.43;100.00;101083.73;1746472;82;21643;-75
2022/10/01 08:59:52;;;;;;;7.62;6.60;;;;;;;25.34;100.00;101081.98;1750822;81;21088;-74
2022/10/01 09:02:29;;;;;;;7.45;6.65;;;;;;;25.08;100.00;101083.17;1750628;81;21044;-74
2022/10/01 09:05:01;;;;;;;10.90;6.40;;;;;;;24.93;100.00;101073.14;1747570;82;21056;-74
2022/10/01 09:07:51;;;;;;;6.67;5.45;;;;;;;25.08;100.00;101063.41;1743861;81;22239;-74
2022/10/01 09:10:54;;;;;;;8.33;6.87;;;;;;;25.17;100.00;101054.13;1691789;82;21064;-73
2022/10/01 09:13:35;;;;;;;7.45;6.40;;;;;;;25.39;100.00;101054.20;1745338;82;21072;-73
2022/10/01 09:16:22;;;;;;;9.83;6.33;;;;;;;25.58;100.00;101061.11;1750745;81;21084;-74
2022/10/01 09:19:33;;;;;;;8.25;6.60;;;;;;;25.36;100.00;101061.08;1745336;81;21084;-74
2022/10/01 09:22:05;;;;;;;9.05;7.42;;;;;;;25.30;100.00;101058.23;1747465;82;21084;-74
2022/10/01 09:24:56;;;;;;;6.85;5.15;;;;;;;25.45;100.00;101048.00;1735248;80;21045;-73
2022/10/01 09:27:26;;;;;;;6.12;5.62;;;;;;;25.66;100.00;101045.03;1750601;80;21863;-72
2022/10/01 09:30:00;;;;;;;7.37;6.30;;;;;;;25.68;100.00;101038.62;1750919;81;21567;-74
2022/10/01 09:32:41;;;;;;;10.63;7.10;;;;;;;25.59;100.00;101035.10;1745712;81;21060;-73
2022/10/01 09:35:28;;;;;;;6.70;6.00;;;;;;;25.59;100.00;101044.83;1749985;82;21064;-73
2022/10/01 09:38:12;;;;;;;7.85;7.15;;;;;;;25.44;100.00;101041.88;1740093;80;21041;-73
2022/10/01 09:40:53;;;;;;;9.13;7.08;;;;;;;25.32;100.00;101041.78;1747798;80;21021;-73
2022/10/01 09:43:31;;;;;;;8.35;7.05;;;;;;;25.47;100.00;101036.32;1748026;80;21053;-73
2022/10/01 09:45:58;;;;;;;8.85;6.85;;;;;;;25.76;100.00;101033.41;1745555;80;21061;-74
2022/10/01 09:48:39;;;;;;;4.78;4.37;;;;;;;25.91;100.00;101027.59;1740615;80;21072;-74
2022/10/01 09:51:13;;;;;;;8.43;7.62;;;;;;;25.92;100.00;101024.81;1750046;81;21073;-74
2022/10/01 09:53:58;;;;;;;8.43;7.40;;;;;;;25.83;100.00;101032.31;1747899;82;21129;-73
2022/10/01 09:56:36;;;;;;;8.15;7.35;;;;;;;25.76;100.00;101037.36;1741688;80;21118;-73
2022/10/01 09:59:14;;;;;;;8.30;7.50;;;;;;;25.76;100.00;101038.67;1745205;80;21064;-73
2022/10/01 10:01:49;;;;;;;8.25;7.28;;;;;;;25.72;100.00;101029.91;1742744;80;21134;-73
2022/10/01 10:04:22;;;;;;;8.20;7.45;;;;;;;25.75;100.00;101033.08;1742484;81;21103;-72
2022/10/01 10:06:59;;;;;;;8.83;7.92;;;;;;;25.83;100.00;101026.19;1742666;82;21044;-74
2022/10/01 10:09:30;;;;;;;8.30;7.47;;;;;;;25.57;100.00;101025.70;1750720;81;21029;-75
2022/10/01 10:11:58;;;;;;;8.95;8.05;;;;;;;25.66;100.00;101020.80;1745433;82;21580;-74
2022/10/01 10:14:35;;;;;;;9.43;8.43;;;;;;;25.53;100.00;101025.17;1750508;81;21056;-74
2022/10/01 10:17:06;;;;;;;10.10;8.45;;;;;;;25.49;100.00;101032.23;1748078;81;21037;-74
2022/10/01 10:19:34;;;;;;;9.55;8.48;;;;;;;25.43;100.00;101032.84;1749830;81;21103;-73
2022/10/01 10:22:23;;;;;;;9.85;8.93;;;;;;;25.28;100.00;101033.84;1743907;81;21056;-73
2022/10/01 10:24:53;;;;;;;12.10;9.75;;;;;;;25.18;100.00;101019.38;1744626;81;21104;-74
2022/10/01 10:27:25;;;;;;;10.23;9.03;;;;;;;25.36;100.00;101010.19;1744571;81;21377;-73
2022/10/01 10:30:16;;;;;;;10.20;9.13;;;;;;;25.49;100.00;101003.23;1747232;81;21100;-74
2022/10/01 10:32:46;;;;;;;10.63;9.53;;;;;;;25.54;100.00;101016.27;1745357;80;21108;-74
2022/10/01 10:35:17;;;;;;;10.63;9.63;;;;;;;25.32;100.00;101009.66;1747997;81;21021;-73
2022/10/01 10:37:51;;;;;;;11.57;9.98;;;;;;;25.25;100.00;101011.26;1748335;81;21028;-74
2022/10/01 10:40:26;;;;;;;10.32;9.33;;;;;;;25.24;100.00;101012.72;1746328;81;21132;-73
2022/10/01 10:42:56;;;;;;;11.43;10.10;;;;;;;25.12;100.00;101005.03;1741498;81;21060;-74
2022/10/01 10:48:44;;;;;;;11.48;10.38;;;;;;;25.21;100.00;101004.64;1725793;80;21131;-75
2022/10/01 10:51:11;;;;;;;16.40;11.00;;;;;;;25.26;100.00;100995.77;1742480;82;21084;-74
2022/10/01 10:53:44;;;;;;;12.28;10.10;;;;;;;25.35;100.00;100997.52;1750681;81;21059;-74
2022/10/01 10:56:22;;;;;;;12.00;11.00;;;;;;;25.23;100.00;100993.95;1745257;81;21595;-74
2022/10/01 10:58:51;;;;;;;11.57;10.55;;;;;;;25.10;100.00;100995.59;1743022;81;21072;-74
2022/10/01 11:01:26;;;;;;;12.15;10.58;;;;;;;25.22;100.00;100984.38;1750856;81;21071;-74
2022/10/01 11:03:56;;;;;;;10.78;9.78;;;;;;;25.32;100.00;100993.84;1747343;80;21048;-73
2022/10/01 11:06:24;;;;;;;11.63;10.45;;;;;;;25.19;100.00;100984.17;1748145;81;21079;-72
2022/10/01 11:09:06;;;;;;;11.15;10.15;;;;;;;25.23;100.00;100980.28;1743482;81;21458;-74
2022/10/01 11:11:50;;;;;;;11.78;10.45;;;;;;;25.43;100.00;100978.80;1748170;81;21095;-74
2022/10/01 11:14:41;;;;;;;11.65;10.50;;;;;;;25.51;100.00;100973.59;1748370;81;21013;-73
2022/10/01 11:17:29;;;;;;;12.20;10.98;;;;;;;25.58;100.00;100969.34;1746430;80;21081;-73
2022/10/01 11:20:31;;;;;;;10.23;9.20;;;;;;;25.80;100.00;100968.00;1748067;81;21033;-74
2022/10/01 11:23:09;;;;;;;11.80;10.53;;;;;;;25.98;100.00;100976.70;1715392;82;21065;-73
2022/10/01 11:26:09;;;;;;;11.48;10.48;;;;;;;25.79;100.00;100966.33;1665210;82;21084;-73
2022/10/01 11:28:45;;;;;;;11.78;9.78;;;;;;;25.97;100.00;100971.11;1754052;81;21045;-74
2022/10/01 11:32:01;;;;;;;12.18;10.82;;;;;;;25.84;100.00;100973.30;1747792;81;21076;-74
2022/10/01 11:34:58;;;;;;;11.83;10.15;;;;;;;25.79;100.00;100967.18;1750715;80;21061;-71
2022/10/01 11:37:46;;;;;;;13.83;10.98;;;;;;;25.69;100.00;100960.34;1744985;81;21041;-72